sensor_id;sensor_type;location;lat;lon;timestamp;P1;durP1;ratioP1;P2;durP2;ratioP2
66800;SDS011;53703;50.326;19.122;2023-07-29T00:01:58;5.50;;;2.80;;
66800;SDS011;53703;50.326;19.122;2023-07-29T00:04:31;7.00;;;3.10;;
66800;SDS011;53703;50.326;19.122;2023-07-29T00:07:05;4.90;;;2.80;;
66800;SDS011;53703;50.326;19.122;2023-07-29T00:09:38;7.00;;;3.70;;
66800;SDS011;53703;50.326;19.122;2023-07-29T00:12:12;4.70;;;2.90;;
66800;SDS011;53703;50.326;19.122;2023-07-29T00:14:45;5.40;;;2.80;;
66800;SDS011;53703;50.326;19.122;2023-07-29T00:17:18;5.00;;;3.20;;
66800;SDS011;53703;50.326;19.122;2023-07-29T00:19:51;6.00;;;3.00;;
66800;SDS011;53703;50.326;19.122;2023-07-29T00:22:25;6.20;;;3.20;;
66800;SDS011;53703;50.326;19.122;2023-07-29T00:24:58;6.00;;;3.20;;
66800;SDS011;53703;50.326;19.122;2023-07-29T00:27:31;6.10;;;2.90;;
66800;SDS011;53703;50.326;19.122;2023-07-29T00:30:06;5.70;;;3.00;;
66800;SDS011;53703;50.326;19.122;2023-07-29T00:32:40;4.80;;;2.80;;
66800;SDS011;53703;50.326;19.122;2023-07-29T00:35:14;9.00;;;3.40;;
66800;SDS011;53703;50.326;19.122;2023-07-29T00:37:47;6.00;;;3.30;;
66800;SDS011;53703;50.326;19.122;2023-07-29T00:40:21;6.80;;;3.00;;
66800;SDS011;53703;50.326;19.122;2023-07-29T00:42:55;6.00;;;3.50;;
66800;SDS011;53703;50.326;19.122;2023-07-29T00:45:29;5.80;;;2.90;;
66800;SDS011;53703;50.326;19.122;2023-07-29T00:48:03;6.10;;;3.00;;
66800;SDS011;53703;50.326;19.122;2023-07-29T00:50:37;9.40;;;3.60;;
66800;SDS011;53703;50.326;19.122;2023-07-29T00:53:10;9.20;;;3.30;;
66800;SDS011;53703;50.326;19.122;2023-07-29T00:55:44;5.10;;;2.60;;
66800;SDS011;53703;50.326;19.122;2023-07-29T00:58:18;6.70;;;2.90;;
66800;SDS011;53703;50.326;19.122;2023-07-29T01:00:52;5.30;;;3.00;;
66800;SDS011;53703;50.326;19.122;2023-07-29T01:03:26;7.70;;;2.90;;
66800;SDS011;53703;50.326;19.122;2023-07-29T01:06:07;5.60;;;3.20;;
66800;SDS011;53703;50.326;19.122;2023-07-29T01:08:50;5.20;;;3.30;;
66800;SDS011;53703;50.326;19.122;2023-07-29T01:11:35;4.60;;;3.00;;
66800;SDS011;53703;50.326;19.122;2023-07-29T01:14:19;4.90;;;3.30;;
66800;SDS011;53703;50.326;19.122;2023-07-29T01:17:03;8.00;;;3.10;;
66800;SDS011;53703;50.326;19.122;2023-07-29T01:19:52;5.30;;;3.00;;
66800;SDS011;53703;50.326;19.122;2023-07-29T01:22:31;4.90;;;2.90;;
66800;SDS011;53703;50.326;19.122;2023-07-29T01:25:06;6.70;;;2.70;;
66800;SDS011;53703;50.326;19.122;2023-07-29T01:27:40;5.50;;;3.00;;
66800;SDS011;53703;50.326;19.122;2023-07-29T01:30:14;7.50;;;3.10;;
66800;SDS011;53703;50.326;19.122;2023-07-29T01:32:51;5.80;;;2.90;;
66800;SDS011;53703;50.326;19.122;2023-07-29T01:35:28;5.90;;;3.40;;
66800;SDS011;53703;50.326;19.122;2023-07-29T01:38:07;5.30;;;3.00;;
66800;SDS011;53703;50.326;19.122;2023-07-29T01:40:45;6.10;;;3.40;;
66800;SDS011;53703;50.326;19.122;2023-07-29T01:43:20;9.00;;;3.10;;
66800;SDS011;53703;50.326;19.122;2023-07-29T01:45:56;4.60;;;2.80;;
66800;SDS011;53703;50.326;19.122;2023-07-29T01:48:30;5.60;;;3.00;;
66800;SDS011;53703;50.326;19.122;2023-07-29T01:51:03;5.80;;;3.10;;
66800;SDS011;53703;50.326;19.122;2023-07-29T01:53:36;4.80;;;3.30;;
66800;SDS011;53703;50.326;19.122;2023-07-29T01:56:09;5.30;;;3.10;;
66800;SDS011;53703;50.326;19.122;2023-07-29T01:58:43;6.70;;;3.10;;
66800;SDS011;53703;50.326;19.122;2023-07-29T02:01:16;4.50;;;3.30;;
66800;SDS011;53703;50.326;19.122;2023-07-29T02:03:49;4.60;;;3.10;;
66800;SDS011;53703;50.326;19.122;2023-07-29T02:06:26;6.30;;;3.00;;
66800;SDS011;53703;50.326;19.122;2023-07-29T02:08:59;5.50;;;3.20;;
66800;SDS011;53703;50.326;19.122;2023-07-29T02:11:35;6.50;;;3.10;;
66800;SDS011;53703;50.326;19.122;2023-07-29T02:14:08;7.80;;;3.10;;
66800;SDS011;53703;50.326;19.122;2023-07-29T02:16:41;11.40;;;4.60;;
66800;SDS011;53703;50.326;19.122;2023-07-29T02:19:15;4.50;;;3.20;;
66800;SDS011;53703;50.326;19.122;2023-07-29T02:21:48;6.10;;;2.70;;
66800;SDS011;53703;50.326;19.122;2023-07-29T02:24:21;5.70;;;2.90;;
66800;SDS011;53703;50.326;19.122;2023-07-29T02:26:55;7.60;;;3.30;;
66800;SDS011;53703;50.326;19.122;2023-07-29T02:29:28;6.60;;;3.30;;
66800;SDS011;53703;50.326;19.122;2023-07-29T02:32:03;8.00;;;3.90;;
66800;SDS011;53703;50.326;19.122;2023-07-29T02:34:37;6.90;;;3.60;;
66800;SDS011;53703;50.326;19.122;2023-07-29T02:37:10;5.50;;;3.20;;
66800;SDS011;53703;50.326;19.122;2023-07-29T02:39:44;6.40;;;3.20;;
66800;SDS011;53703;50.326;19.122;2023-07-29T02:42:18;6.40;;;3.10;;
66800;SDS011;53703;50.326;19.122;2023-07-29T02:44:51;5.50;;;3.40;;
66800;SDS011;53703;50.326;19.122;2023-07-29T02:47:24;6.10;;;3.50;;
66800;SDS011;53703;50.326;19.122;2023-07-29T02:49:57;6.90;;;3.30;;
66800;SDS011;53703;50.326;19.122;2023-07-29T02:52:31;4.70;;;3.30;;
66800;SDS011;53703;50.326;19.122;2023-07-29T02:55:04;6.50;;;3.20;;
66800;SDS011;53703;50.326;19.122;2023-07-29T02:57:38;9.00;;;3.20;;
66800;SDS011;53703;50.326;19.122;2023-07-29T03:00:13;4.80;;;3.20;;
66800;SDS011;53703;50.326;19.122;2023-07-29T03:02:47;7.00;;;3.70;;
66800;SDS011;53703;50.326;19.122;2023-07-29T03:05:21;6.80;;;3.70;;
66800;SDS011;53703;50.326;19.122;2023-07-29T03:07:54;5.20;;;3.20;;
66800;SDS011;53703;50.326;19.122;2023-07-29T03:10:29;6.00;;;3.10;;
66800;SDS011;53703;50.326;19.122;2023-07-29T03:13:02;8.40;;;3.80;;
66800;SDS011;53703;50.326;19.122;2023-07-29T03:15:35;5.90;;;3.20;;
66800;SDS011;53703;50.326;19.122;2023-07-29T03:18:09;6.30;;;3.40;;
66800;SDS011;53703;50.326;19.122;2023-07-29T03:20:42;5.90;;;3.50;;
66800;SDS011;53703;50.326;19.122;2023-07-29T03:23:15;5.40;;;3.10;;
66800;SDS011;53703;50.326;19.122;2023-07-29T03:25:50;5.10;;;3.20;;
66800;SDS011;53703;50.326;19.122;2023-07-29T03:28:28;8.10;;;3.50;;
66800;SDS011;53703;50.326;19.122;2023-07-29T03:31:03;5.40;;;3.30;;
66800;SDS011;53703;50.326;19.122;2023-07-29T03:33:37;6.40;;;3.40;;
66800;SDS011;53703;50.326;19.122;2023-07-29T03:36:10;7.50;;;3.20;;
66800;SDS011;53703;50.326;19.122;2023-07-29T03:38:44;6.00;;;3.20;;
66800;SDS011;53703;50.326;19.122;2023-07-29T03:41:17;6.20;;;3.60;;
66800;SDS011;53703;50.326;19.122;2023-07-29T03:43:51;7.80;;;3.70;;
66800;SDS011;53703;50.326;19.122;2023-07-29T03:46:24;8.50;;;3.50;;
66800;SDS011;53703;50.326;19.122;2023-07-29T03:48:57;6.90;;;3.70;;
66800;SDS011;53703;50.326;19.122;2023-07-29T03:51:30;9.60;;;4.30;;
66800;SDS011;53703;50.326;19.122;2023-07-29T03:54:04;5.90;;;4.00;;
66800;SDS011;53703;50.326;19.122;2023-07-29T03:56:37;8.00;;;4.00;;
66800;SDS011;53703;50.326;19.122;2023-07-29T03:59:10;7.50;;;4.10;;
66800;SDS011;53703;50.326;19.122;2023-07-29T04:01:43;6.90;;;4.00;;
66800;SDS011;53703;50.326;19.122;2023-07-29T04:04:17;8.10;;;4.00;;
66800;SDS011;53703;50.326;19.122;2023-07-29T04:06:50;12.90;;;4.80;;
66800;SDS011;53703;50.326;19.122;2023-07-29T04:09:24;7.10;;;4.30;;
66800;SDS011;53703;50.326;19.122;2023-07-29T04:11:57;7.10;;;4.70;;
66800;SDS011;53703;50.326;19.122;2023-07-29T04:14:30;8.20;;;4.80;;
66800;SDS011;53703;50.326;19.122;2023-07-29T04:17:04;9.20;;;5.40;;
66800;SDS011;53703;50.326;19.122;2023-07-29T04:19:38;8.00;;;5.10;;
66800;SDS011;53703;50.326;19.122;2023-07-29T04:22:12;11.20;;;5.80;;
66800;SDS011;53703;50.326;19.122;2023-07-29T04:24:45;10.90;;;5.30;;
66800;SDS011;53703;50.326;19.122;2023-07-29T04:27:19;10.50;;;5.80;;
66800;SDS011;53703;50.326;19.122;2023-07-29T04:29:52;13.50;;;5.80;;
66800;SDS011;53703;50.326;19.122;2023-07-29T04:32:26;14.60;;;5.80;;
66800;SDS011;53703;50.326;19.122;2023-07-29T04:34:59;10.10;;;5.90;;
66800;SDS011;53703;50.326;19.122;2023-07-29T04:37:33;13.80;;;6.40;;
66800;SDS011;53703;50.326;19.122;2023-07-29T04:40:09;8.90;;;6.20;;
66800;SDS011;53703;50.326;19.122;2023-07-29T04:42:42;11.40;;;6.80;;
66800;SDS011;53703;50.326;19.122;2023-07-29T04:45:16;11.60;;;5.80;;
66800;SDS011;53703;50.326;19.122;2023-07-29T04:47:49;12.50;;;5.90;;
66800;SDS011;53703;50.326;19.122;2023-07-29T04:50:22;11.10;;;5.70;;
66800;SDS011;53703;50.326;19.122;2023-07-29T04:52:55;11.80;;;6.10;;
66800;SDS011;53703;50.326;19.122;2023-07-29T04:55:29;10.00;;;6.10;;
66800;SDS011;53703;50.326;19.122;2023-07-29T04:58:02;11.60;;;5.90;;
66800;SDS011;53703;50.326;19.122;2023-07-29T05:00:36;9.10;;;5.80;;
66800;SDS011;53703;50.326;19.122;2023-07-29T05:03:09;9.70;;;5.90;;
66800;SDS011;53703;50.326;19.122;2023-07-29T05:05:42;10.70;;;6.20;;
66800;SDS011;53703;50.326;19.122;2023-07-29T05:08:15;12.30;;;5.80;;
66800;SDS011;53703;50.326;19.122;2023-07-29T05:10:51;11.00;;;6.40;;
66800;SDS011;53703;50.326;19.122;2023-07-29T05:13:25;12.10;;;6.40;;
66800;SDS011;53703;50.326;19.122;2023-07-29T05:15:58;10.30;;;6.10;;
66800;SDS011;53703;50.326;19.122;2023-07-29T05:18:31;11.90;;;5.70;;
66800;SDS011;53703;50.326;19.122;2023-07-29T05:21:05;12.30;;;5.80;;
66800;SDS011;53703;50.326;19.122;2023-07-29T05:23:41;9.60;;;6.20;;
66800;SDS011;53703;50.326;19.122;2023-07-29T05:26:14;9.40;;;6.20;;
66800;SDS011;53703;50.326;19.122;2023-07-29T05:28:48;9.00;;;5.20;;
66800;SDS011;53703;50.326;19.122;2023-07-29T05:31:21;9.00;;;5.50;;
66800;SDS011;53703;50.326;19.122;2023-07-29T05:33:55;9.90;;;5.80;;
66800;SDS011;53703;50.326;19.122;2023-07-29T05:36:28;9.40;;;5.70;;
66800;SDS011;53703;50.326;19.122;2023-07-29T05:39:02;9.70;;;6.00;;
66800;SDS011;53703;50.326;19.122;2023-07-29T05:41:35;9.60;;;5.30;;
66800;SDS011;53703;50.326;19.122;2023-07-29T05:44:08;9.80;;;5.90;;
66800;SDS011;53703;50.326;19.122;2023-07-29T05:46:41;9.50;;;5.00;;
66800;SDS011;53703;50.326;19.122;2023-07-29T05:49:15;9.20;;;5.70;;
66800;SDS011;53703;50.326;19.122;2023-07-29T05:51:49;10.00;;;5.30;;
66800;SDS011;53703;50.326;19.122;2023-07-29T05:54:23;10.40;;;5.90;;
66800;SDS011;53703;50.326;19.122;2023-07-29T05:56:56;8.70;;;5.00;;
66800;SDS011;53703;50.326;19.122;2023-07-29T05:59:30;7.70;;;4.90;;
66800;SDS011;53703;50.326;19.122;2023-07-29T06:02:03;10.40;;;4.60;;
66800;SDS011;53703;50.326;19.122;2023-07-29T06:04:37;7.20;;;4.60;;
66800;SDS011;53703;50.326;19.122;2023-07-29T06:07:10;10.10;;;5.50;;
66800;SDS011;53703;50.326;19.122;2023-07-29T06:09:44;12.30;;;4.80;;
66800;SDS011;53703;50.326;19.122;2023-07-29T06:12:17;6.90;;;4.50;;
66800;SDS011;53703;50.326;19.122;2023-07-29T06:14:50;8.00;;;4.60;;
66800;SDS011;53703;50.326;19.122;2023-07-29T06:17:23;11.10;;;4.70;;
66800;SDS011;53703;50.326;19.122;2023-07-29T06:19:57;9.00;;;4.60;;
66800;SDS011;53703;50.326;19.122;2023-07-29T06:22:30;7.10;;;4.10;;
66800;SDS011;53703;50.326;19.122;2023-07-29T06:25:04;9.60;;;4.60;;
66800;SDS011;53703;50.326;19.122;2023-07-29T06:27:38;6.00;;;4.20;;
66800;SDS011;53703;50.326;19.122;2023-07-29T06:30:11;6.00;;;4.20;;
66800;SDS011;53703;50.326;19.122;2023-07-29T06:32:45;6.90;;;3.80;;
66800;SDS011;53703;50.326;19.122;2023-07-29T06:35:18;6.40;;;4.10;;
66800;SDS011;53703;50.326;19.122;2023-07-29T06:37:51;8.90;;;4.20;;
66800;SDS011;53703;50.326;19.122;2023-07-29T06:40:25;6.70;;;3.40;;
66800;SDS011;53703;50.326;19.122;2023-07-29T06:42:58;5.80;;;3.30;;
66800;SDS011;53703;50.326;19.122;2023-07-29T06:45:31;7.30;;;3.60;;
66800;SDS011;53703;50.326;19.122;2023-07-29T06:48:05;5.90;;;3.60;;
66800;SDS011;53703;50.326;19.122;2023-07-29T06:50:40;5.50;;;3.40;;
66800;SDS011;53703;50.326;19.122;2023-07-29T06:53:15;5.70;;;3.50;;
66800;SDS011;53703;50.326;19.122;2023-07-29T06:55:49;5.90;;;3.00;;
66800;SDS011;53703;50.326;19.122;2023-07-29T06:58:22;5.20;;;3.40;;
66800;SDS011;53703;50.326;19.122;2023-07-29T07:00:56;5.40;;;3.60;;
66800;SDS011;53703;50.326;19.122;2023-07-29T07:03:29;5.00;;;2.80;;
66800;SDS011;53703;50.326;19.122;2023-07-29T07:06:03;8.20;;;3.80;;
66800;SDS011;53703;50.326;19.122;2023-07-29T07:08:36;6.50;;;3.40;;
66800;SDS011;53703;50.326;19.122;2023-07-29T07:11:10;6.30;;;3.60;;
66800;SDS011;53703;50.326;19.122;2023-07-29T07:13:43;5.90;;;3.60;;
66800;SDS011;53703;50.326;19.122;2023-07-29T07:16:16;4.30;;;3.00;;
66800;SDS011;53703;50.326;19.122;2023-07-29T07:18:50;6.10;;;3.10;;
66800;SDS011;53703;50.326;19.122;2023-07-29T07:21:23;4.80;;;3.00;;
66800;SDS011;53703;50.326;19.122;2023-07-29T07:23:57;6.30;;;3.40;;
66800;SDS011;53703;50.326;19.122;2023-07-29T07:26:30;5.90;;;2.80;;
66800;SDS011;53703;50.326;19.122;2023-07-29T07:29:04;4.90;;;3.00;;
66800;SDS011;53703;50.326;19.122;2023-07-29T07:31:37;6.20;;;3.30;;
66800;SDS011;53703;50.326;19.122;2023-07-29T07:34:10;6.10;;;3.00;;
66800;SDS011;53703;50.326;19.122;2023-07-29T07:36:44;5.40;;;3.30;;
66800;SDS011;53703;50.326;19.122;2023-07-29T07:39:17;4.50;;;3.00;;
66800;SDS011;53703;50.326;19.122;2023-07-29T07:41:50;6.10;;;3.10;;
66800;SDS011;53703;50.326;19.122;2023-07-29T07:44:24;4.40;;;2.90;;
66800;SDS011;53703;50.326;19.122;2023-07-29T07:46:57;4.80;;;3.10;;
66800;SDS011;53703;50.326;19.122;2023-07-29T07:49:34;4.20;;;2.80;;
66800;SDS011;53703;50.326;19.122;2023-07-29T07:52:08;4.80;;;3.40;;
66800;SDS011;53703;50.326;19.122;2023-07-29T07:54:41;6.10;;;2.70;;
66800;SDS011;53703;50.326;19.122;2023-07-29T07:57:15;6.70;;;3.30;;
66800;SDS011;53703;50.326;19.122;2023-07-29T07:59:48;3.90;;;2.90;;
66800;SDS011;53703;50.326;19.122;2023-07-29T08:02:22;6.00;;;3.00;;
66800;SDS011;53703;50.326;19.122;2023-07-29T08:04:56;5.20;;;3.20;;
66800;SDS011;53703;50.326;19.122;2023-07-29T08:07:29;3.90;;;2.60;;
66800;SDS011;53703;50.326;19.122;2023-07-29T08:10:02;3.80;;;2.80;;
66800;SDS011;53703;50.326;19.122;2023-07-29T08:12:37;4.90;;;2.90;;
66800;SDS011;53703;50.326;19.122;2023-07-29T08:15:10;7.20;;;3.30;;
66800;SDS011;53703;50.326;19.122;2023-07-29T08:17:44;4.40;;;2.90;;
66800;SDS011;53703;50.326;19.122;2023-07-29T08:20:18;4.10;;;2.80;;
66800;SDS011;53703;50.326;19.122;2023-07-29T08:22:52;4.10;;;2.90;;
66800;SDS011;53703;50.326;19.122;2023-07-29T08:25:25;4.90;;;3.20;;
66800;SDS011;53703;50.326;19.122;2023-07-29T08:28:00;4.20;;;3.20;;
66800;SDS011;53703;50.326;19.122;2023-07-29T08:30:33;5.40;;;3.00;;
66800;SDS011;53703;50.326;19.122;2023-07-29T08:33:06;4.30;;;2.80;;
66800;SDS011;53703;50.326;19.122;2023-07-29T08:35:39;6.10;;;2.90;;
66800;SDS011;53703;50.326;19.122;2023-07-29T08:38:13;4.90;;;2.80;;
66800;SDS011;53703;50.326;19.122;2023-07-29T08:40:49;4.20;;;3.00;;
66800;SDS011;53703;50.326;19.122;2023-07-29T08:43:27;6.90;;;3.20;;
66800;SDS011;53703;50.326;19.122;2023-07-29T08:46:02;4.30;;;3.00;;
66800;SDS011;53703;50.326;19.122;2023-07-29T08:48:39;3.30;;;2.50;;
66800;SDS011;53703;50.326;19.122;2023-07-29T08:51:14;4.00;;;2.70;;
66800;SDS011;53703;50.326;19.122;2023-07-29T08:53:48;3.90;;;2.60;;
66800;SDS011;53703;50.326;19.122;2023-07-29T08:56:22;5.70;;;3.00;;
66800;SDS011;53703;50.326;19.122;2023-07-29T08:58:56;5.30;;;2.90;;
66800;SDS011;53703;50.326;19.122;2023-07-29T09:01:30;4.20;;;2.60;;
66800;SDS011;53703;50.326;19.122;2023-07-29T09:04:04;4.80;;;2.70;;
66800;SDS011;53703;50.326;19.122;2023-07-29T09:06:38;3.70;;;2.60;;
66800;SDS011;53703;50.326;19.122;2023-07-29T09:09:13;3.70;;;2.70;;
66800;SDS011;53703;50.326;19.122;2023-07-29T09:11:46;4.20;;;2.70;;
66800;SDS011;53703;50.326;19.122;2023-07-29T09:14:20;4.20;;;2.60;;
66800;SDS011;53703;50.326;19.122;2023-07-29T09:16:54;4.70;;;2.60;;
66800;SDS011;53703;50.326;19.122;2023-07-29T09:19:28;8.40;;;2.80;;
66800;SDS011;53703;50.326;19.122;2023-07-29T09:22:07;3.90;;;2.60;;
66800;SDS011;53703;50.326;19.122;2023-07-29T09:24:50;5.20;;;2.60;;
66800;SDS011;53703;50.326;19.122;2023-07-29T09:27:28;4.00;;;2.30;;
66800;SDS011;53703;50.326;19.122;2023-07-29T09:30:03;3.50;;;2.40;;
66800;SDS011;53703;50.326;19.122;2023-07-29T09:32:38;3.70;;;2.60;;
66800;SDS011;53703;50.326;19.122;2023-07-29T09:35:13;3.70;;;2.30;;
66800;SDS011;53703;50.326;19.122;2023-07-29T09:37:46;3.20;;;2.60;;
66800;SDS011;53703;50.326;19.122;2023-07-29T09:40:20;3.60;;;2.80;;
66800;SDS011;53703;50.326;19.122;2023-07-29T09:42:54;4.00;;;2.40;;
66800;SDS011;53703;50.326;19.122;2023-07-29T09:45:28;4.30;;;2.60;;
66800;SDS011;53703;50.326;19.122;2023-07-29T09:48:01;4.40;;;2.60;;
66800;SDS011;53703;50.326;19.122;2023-07-29T09:50:40;3.70;;;2.60;;
66800;SDS011;53703;50.326;19.122;2023-07-29T09:53:13;8.20;;;2.90;;
66800;SDS011;53703;50.326;19.122;2023-07-29T09:55:48;5.80;;;2.90;;
66800;SDS011;53703;50.326;19.122;2023-07-29T09:58:28;5.70;;;2.90;;
66800;SDS011;53703;50.326;19.122;2023-07-29T10:01:01;6.00;;;3.30;;
66800;SDS011;53703;50.326;19.122;2023-07-29T10:03:35;4.30;;;3.00;;
66800;SDS011;53703;50.326;19.122;2023-07-29T10:06:09;5.60;;;3.10;;
66800;SDS011;53703;50.326;19.122;2023-07-29T10:08:42;5.20;;;3.00;;
66800;SDS011;53703;50.326;19.122;2023-07-29T10:11:16;7.20;;;2.60;;
66800;SDS011;53703;50.326;19.122;2023-07-29T10:13:52;6.20;;;2.80;;
66800;SDS011;53703;50.326;19.122;2023-07-29T10:16:37;4.50;;;2.80;;
66800;SDS011;53703;50.326;19.122;2023-07-29T10:19:12;4.80;;;3.00;;
66800;SDS011;53703;50.326;19.122;2023-07-29T10:21:48;4.20;;;2.80;;
66800;SDS011;53703;50.326;19.122;2023-07-29T10:24:24;4.60;;;2.80;;
66800;SDS011;53703;50.326;19.122;2023-07-29T10:27:01;5.10;;;3.20;;
66800;SDS011;53703;50.326;19.122;2023-07-29T10:29:38;4.10;;;2.70;;
66800;SDS011;53703;50.326;19.122;2023-07-29T10:32:14;3.80;;;2.80;;
66800;SDS011;53703;50.326;19.122;2023-07-29T10:34:48;5.60;;;2.90;;
66800;SDS011;53703;50.326;19.122;2023-07-29T10:37:22;4.00;;;2.70;;
66800;SDS011;53703;50.326;19.122;2023-07-29T10:39:55;3.90;;;3.00;;
66800;SDS011;53703;50.326;19.122;2023-07-29T10:42:29;6.10;;;2.60;;
66800;SDS011;53703;50.326;19.122;2023-07-29T10:45:20;4.00;;;3.10;;
66800;SDS011;53703;50.326;19.122;2023-07-29T10:47:54;4.70;;;2.60;;
66800;SDS011;53703;50.326;19.122;2023-07-29T10:50:27;7.30;;;2.70;;
66800;SDS011;53703;50.326;19.122;2023-07-29T10:53:00;3.80;;;2.60;;
66800;SDS011;53703;50.326;19.122;2023-07-29T10:55:35;5.60;;;2.40;;
66800;SDS011;53703;50.326;19.122;2023-07-29T10:58:11;5.10;;;2.60;;
66800;SDS011;53703;50.326;19.122;2023-07-29T11:00:45;3.60;;;2.50;;
66800;SDS011;53703;50.326;19.122;2023-07-29T11:03:20;3.50;;;2.60;;
66800;SDS011;53703;50.326;19.122;2023-07-29T11:08:35;3.80;;;2.50;;
66800;SDS011;53703;50.326;19.122;2023-07-29T11:11:11;5.00;;;2.70;;
66800;SDS011;53703;50.326;19.122;2023-07-29T11:13:45;4.20;;;3.10;;
66800;SDS011;53703;50.326;19.122;2023-07-29T11:16:18;6.30;;;3.20;;
66800;SDS011;53703;50.326;19.122;2023-07-29T11:18:53;5.90;;;3.50;;
66800;SDS011;53703;50.326;19.122;2023-07-29T11:21:26;4.70;;;3.20;;
66800;SDS011;53703;50.326;19.122;2023-07-29T11:24:01;5.40;;;3.30;;
66800;SDS011;53703;50.326;19.122;2023-07-29T11:26:38;5.10;;;3.50;;
66800;SDS011;53703;50.326;19.122;2023-07-29T11:29:19;4.60;;;3.40;;
66800;SDS011;53703;50.326;19.122;2023-07-29T11:31:53;5.30;;;3.60;;
66800;SDS011;53703;50.326;19.122;2023-07-29T11:34:33;5.50;;;3.50;;
66800;SDS011;53703;50.326;19.122;2023-07-29T11:37:08;5.70;;;4.00;;
66800;SDS011;53703;50.326;19.122;2023-07-29T11:39:43;5.40;;;3.50;;
66800;SDS011;53703;50.326;19.122;2023-07-29T11:42:17;5.20;;;3.60;;
66800;SDS011;53703;50.326;19.122;2023-07-29T11:44:50;5.10;;;3.20;;
66800;SDS011;53703;50.326;19.122;2023-07-29T11:47:24;4.40;;;3.30;;
66800;SDS011;53703;50.326;19.122;2023-07-29T11:49:59;4.80;;;3.10;;
66800;SDS011;53703;50.326;19.122;2023-07-29T11:52:33;5.90;;;3.50;;
66800;SDS011;53703;50.326;19.122;2023-07-29T11:55:08;6.60;;;3.50;;
66800;SDS011;53703;50.326;19.122;2023-07-29T11:57:42;4.50;;;3.40;;
66800;SDS011;53703;50.326;19.122;2023-07-29T12:00:16;4.60;;;3.50;;
66800;SDS011;53703;50.326;19.122;2023-07-29T12:02:50;4.60;;;2.90;;
66800;SDS011;53703;50.326;19.122;2023-07-29T12:05:24;5.40;;;3.40;;
66800;SDS011;53703;50.326;19.122;2023-07-29T12:07:58;8.60;;;5.20;;
66800;SDS011;53703;50.326;19.122;2023-07-29T12:10:32;4.80;;;3.20;;
66800;SDS011;53703;50.326;19.122;2023-07-29T12:13:07;5.10;;;3.40;;
66800;SDS011;53703;50.326;19.122;2023-07-29T12:15:40;5.70;;;3.10;;
66800;SDS011;53703;50.326;19.122;2023-07-29T12:18:14;3.50;;;3.00;;
66800;SDS011;53703;50.326;19.122;2023-07-29T12:20:48;4.90;;;3.40;;
66800;SDS011;53703;50.326;19.122;2023-07-29T12:23:25;4.00;;;3.10;;
66800;SDS011;53703;50.326;19.122;2023-07-29T12:25:59;3.90;;;3.10;;
66800;SDS011;53703;50.326;19.122;2023-07-29T12:28:32;5.00;;;3.00;;
66800;SDS011;53703;50.326;19.122;2023-07-29T12:31:08;4.20;;;3.10;;
66800;SDS011;53703;50.326;19.122;2023-07-29T12:33:41;4.10;;;3.00;;
66800;SDS011;53703;50.326;19.122;2023-07-29T12:36:14;3.90;;;2.70;;
66800;SDS011;53703;50.326;19.122;2023-07-29T12:38:49;5.60;;;3.40;;
66800;SDS011;53703;50.326;19.122;2023-07-29T12:41:23;3.60;;;2.60;;
66800;SDS011;53703;50.326;19.122;2023-07-29T12:43:56;4.50;;;2.80;;
66800;SDS011;53703;50.326;19.122;2023-07-29T12:46:31;3.60;;;3.00;;
66800;SDS011;53703;50.326;19.122;2023-07-29T12:49:05;3.70;;;2.60;;
66800;SDS011;53703;50.326;19.122;2023-07-29T12:51:38;3.50;;;2.70;;
66800;SDS011;53703;50.326;19.122;2023-07-29T12:54:12;3.90;;;2.90;;
66800;SDS011;53703;50.326;19.122;2023-07-29T12:56:45;4.40;;;2.80;;
66800;SDS011;53703;50.326;19.122;2023-07-29T12:59:19;3.60;;;2.60;;
66800;SDS011;53703;50.326;19.122;2023-07-29T13:01:52;3.00;;;2.50;;
66800;SDS011;53703;50.326;19.122;2023-07-29T13:04:26;3.50;;;2.50;;
66800;SDS011;53703;50.326;19.122;2023-07-29T13:06:59;3.40;;;2.70;;
66800;SDS011;53703;50.326;19.122;2023-07-29T13:09:32;3.10;;;2.60;;
66800;SDS011;53703;50.326;19.122;2023-07-29T13:12:06;4.00;;;2.80;;
66800;SDS011;53703;50.326;19.122;2023-07-29T13:14:40;3.60;;;2.80;;
66800;SDS011;53703;50.326;19.122;2023-07-29T13:17:13;4.30;;;2.60;;
66800;SDS011;53703;50.326;19.122;2023-07-29T13:19:47;4.10;;;3.00;;
66800;SDS011;53703;50.326;19.122;2023-07-29T13:22:20;3.10;;;2.60;;
66800;SDS011;53703;50.326;19.122;2023-07-29T13:24:54;3.30;;;2.30;;
66800;SDS011;53703;50.326;19.122;2023-07-29T13:27:27;3.80;;;2.30;;
66800;SDS011;53703;50.326;19.122;2023-07-29T13:30:00;5.10;;;3.00;;
66800;SDS011;53703;50.326;19.122;2023-07-29T13:32:34;5.80;;;2.90;;
66800;SDS011;53703;50.326;19.122;2023-07-29T13:35:08;5.30;;;2.70;;
66800;SDS011;53703;50.326;19.122;2023-07-29T13:37:41;4.40;;;2.60;;
66800;SDS011;53703;50.326;19.122;2023-07-29T13:40:15;3.50;;;2.60;;
66800;SDS011;53703;50.326;19.122;2023-07-29T13:42:48;4.90;;;3.20;;
66800;SDS011;53703;50.326;19.122;2023-07-29T13:45:22;3.80;;;3.10;;
66800;SDS011;53703;50.326;19.122;2023-07-29T13:47:55;4.20;;;2.90;;
66800;SDS011;53703;50.326;19.122;2023-07-29T13:50:29;4.90;;;3.30;;
66800;SDS011;53703;50.326;19.122;2023-07-29T13:53:02;4.30;;;2.70;;
66800;SDS011;53703;50.326;19.122;2023-07-29T13:55:35;4.10;;;2.60;;
66800;SDS011;53703;50.326;19.122;2023-07-29T13:58:09;4.40;;;2.80;;
66800;SDS011;53703;50.326;19.122;2023-07-29T14:00:42;3.80;;;2.70;;
66800;SDS011;53703;50.326;19.122;2023-07-29T14:03:15;4.30;;;2.70;;
66800;SDS011;53703;50.326;19.122;2023-07-29T14:05:49;5.40;;;3.10;;
66800;SDS011;53703;50.326;19.122;2023-07-29T14:08:22;3.70;;;2.70;;
66800;SDS011;53703;50.326;19.122;2023-07-29T14:10:55;3.50;;;2.60;;
66800;SDS011;53703;50.326;19.122;2023-07-29T14:13:28;4.30;;;2.60;;
66800;SDS011;53703;50.326;19.122;2023-07-29T14:16:03;3.30;;;2.50;;
66800;SDS011;53703;50.326;19.122;2023-07-29T14:18:37;4.00;;;2.60;;
66800;SDS011;53703;50.326;19.122;2023-07-29T14:21:10;3.80;;;2.70;;
66800;SDS011;53703;50.326;19.122;2023-07-29T14:23:43;3.40;;;2.60;;
66800;SDS011;53703;50.326;19.122;2023-07-29T14:26:16;4.90;;;2.50;;
66800;SDS011;53703;50.326;19.122;2023-07-29T14:28:50;3.40;;;2.30;;
66800;SDS011;53703;50.326;19.122;2023-07-29T14:31:23;3.30;;;2.30;;
66800;SDS011;53703;50.326;19.122;2023-07-29T14:33:56;3.00;;;2.10;;
66800;SDS011;53703;50.326;19.122;2023-07-29T14:36:30;3.80;;;2.10;;
66800;SDS011;53703;50.326;19.122;2023-07-29T14:39:04;3.20;;;2.10;;
66800;SDS011;53703;50.326;19.122;2023-07-29T14:41:38;4.90;;;2.30;;
66800;SDS011;53703;50.326;19.122;2023-07-29T14:44:11;5.00;;;2.10;;
66800;SDS011;53703;50.326;19.122;2023-07-29T14:46:44;3.70;;;2.20;;
66800;SDS011;53703;50.326;19.122;2023-07-29T14:49:17;4.60;;;2.30;;
66800;SDS011;53703;50.326;19.122;2023-07-29T14:51:51;3.10;;;2.30;;
66800;SDS011;53703;50.326;19.122;2023-07-29T14:54:24;3.80;;;2.10;;
66800;SDS011;53703;50.326;19.122;2023-07-29T14:56:57;3.10;;;2.10;;
66800;SDS011;53703;50.326;19.122;2023-07-29T14:59:31;3.40;;;2.10;;
66800;SDS011;53703;50.326;19.122;2023-07-29T15:02:05;4.10;;;2.20;;
66800;SDS011;53703;50.326;19.122;2023-07-29T15:04:39;3.20;;;1.90;;
66800;SDS011;53703;50.326;19.122;2023-07-29T15:07:12;3.30;;;2.20;;
66800;SDS011;53703;50.326;19.122;2023-07-29T15:09:45;2.30;;;1.80;;
66800;SDS011;53703;50.326;19.122;2023-07-29T15:12:19;4.10;;;2.20;;
66800;SDS011;53703;50.326;19.122;2023-07-29T15:14:52;3.20;;;2.00;;
66800;SDS011;53703;50.326;19.122;2023-07-29T15:17:25;3.50;;;1.90;;